Challenge JP Guerit

Le jogging de la Vernelle à Baileux (10.60 km)

samedi 24 mars 2018

Le classement original se trouve sur : http://www.challenge-guerit.be/
 
CHALLENGE JP GUERIT
LE JOGGING DE LA VERNELLE - BAILEUX
DISTANCE 10.60 km
samedi 24 mars 2018
 
place
finish
dos NOM Equipe Catég. Place
catégorie
temps temps/km Vitesse
1 62 BAIOLET NICOLAS ACCO SEN H 1 0:38:41 03:39 16.44
2 49 TERWAGNE QUENTIN ACCO SEN H 2 0:38:41 03:39 16.44
3 76 GHISLAIN MAXIMILIEN JACO SEN H 3 0:41:16 03:54 15.41
4 18 TOUZEAU JEAN-PIERRE JACO V1 1 0:41:35 03:55 15.29
5 65 VAN LERBERGHE MARTIN   SEN H 4 0:41:37 03:56 15.28
6 69 VAN LERBERGHE ALEXIS JACO SEN H 5 0:42:53 04:03 14.83
7 41 LUST ERIC LA THURE V2 1 0:42:59 04:03 14.80
8 78 DETHIERE ARNAUD CSCV HIRSON SEN H 6 0:43:03 04:04 14.77
9 92 GRATTEAU ANTONIN ABONDANCE SEN H 7 0:43:48 04:08 14.52
10 27 HARDY MICHAËL LA THURE V1 2 0:43:54 04:08 14.49
11 71 LUST CHRISTOPHE LA THURE V2 2 0:44:41 04:13 14.23
12 91 BOREUX DAMIEN JACO SEN H 8 0:44:45 04:13 14.21
13 2 DUBOIS MICHAËL LA THURE V1 3 0:44:50 04:14 14.19
14 113 SOBRY MATHIEU JACO SEN H 9 0:45:51 04:20 13.87
15 79 DELAPAS STÉPHANE   SEN H 10 0:45:58 04:20 13.84
16 111 GUILLAUME SÉBASTIEN JACO-SHARKS TRI SEN H 11 0:46:12 04:22 13.77
17 84 DE PESTEL BLAISE JACO SEN H 12 0:46:16 04:22 13.75
18 118 GRUMIAUX LUCAS JACO JUH 1 0:46:19 04:22 13.73
19 68 VAN LERBERGHE PIERRE   V2 3 0:46:23 04:23 13.71
20 59 DUBOIS SÉBASTIEN LA THURE V1 4 0:46:35 04:24 13.65
21 21 DUCARME NICOLAS   SEN H 13 0:46:52 04:25 13.57
22 85 ROCHETTE ARNAUD   SEN H 14 0:46:58 04:26 13.54
23 64 MAUDOUX LIONEL JACO SEN H 15 0:47:00 04:26 13.53
24 72 ROGGE STEPHANE FAIREBEL V1 5 0:47:19 04:28 13.44
25 33 GUILLAUME YVES JACO V2 4 0:47:22 04:28 13.43
26 70 VANDERHEYDEN JACQUES JACO V1 6 0:47:29 04:29 13.39
27 31 BRUNEBARBE JOËL LA THURE V1 7 0:47:31 04:29 13.38
28 35 GUIOT FABRICE LA THURE V1 8 0:47:33 04:29 13.38
29 51 HASBANI NAIME JACO x   0:47:44 04:30 13.32
30 48 BOECKX PASCAL LA THURE V1 9 0:47:52 04:31 13.29
31 29 FICHET LAURENT JACO V1 10 0:47:55 04:31 13.27
32 17 TOUZEAU JEAN-LUC   V1 11 0:48:31 04:35 13.11
33 77 DAUSSY EMERIC CSCV HIRSON SEN H 16 0:48:55 04:37 13.00
34 120 LEBLANC GAËL SHARKS SEN H 17 0:49:01 04:37 12.98
35 89 BOTTEAUX FABRICE JTRR SEN H 18 0:49:03 04:38 12.97
36 56 COLINET CÉDRIC   V1 12 0:49:11 04:38 12.93
37 15 BEUGNIES DAVID   SEN H 19 0:49:35 04:41 12.83
38 119 CHENUT SÉBASTIEN STEP & RUN V1 13 0:49:36 04:41 12.82
39 22 BRICE JEAN-MARIE   V2 5 0:49:54 04:42 12.75
40 50 HASBANI LAHOUCINE JACO JUH 2 0:50:01 04:43 12.72
41 60 AMANT BERTRAND LA THURE SEN H 20 0:50:05 04:43 12.70
42 63 ES CHRISTIAN AC FRONTIERES V3 1 0:50:09 04:44 12.68
43 52 TRONÇON BENOÎT TRAILERS DES FAGNES SEN H 21 0:50:26 04:45 12.61
44 114 LECHAT JEAN JACO x   0:50:26 04:45 12.61
45 121 BEDORET GEOFFREY CLERMONTOISE SEN H 22 0:50:27 04:46 12.61
46 106 CORDEWENER ALAIN AC FRONTIERES V2 6 0:50:29 04:46 12.60
47 40 DEVILLE PHILIPPE JTRR V3 2 0:50:45 04:47 12.53
48 104 DELESPINETTE SÉBASTIEN LA THURE SEN H 23 0:51:49 04:53 12.27
49 98 DETRÉ DOMINIQUE JCPMF CHIMAY V1 14 0:52:15 04:56 12.17
50 7 AUBERT SERGE CHUDONDORGANES V3 3 0:52:17 04:56 12.16
51 66 FOULON MARIE-CHRISTINE CRAZY BIKERS A4 1 0:52:32 04:57 12.11
52 112 GILLARD JEAN-PIERRE JACO V2 7 0:53:17 05:02 11.94
53 123 SOUMOY ALAIN ACCO V2 8 0:53:31 05:03 11.88
54 38 VAN DER VRECKEN OLIVIER LA THURE V2 9 0:53:50 05:05 11.81
55 54 BUTEL LOÏC STRATOS RUNNING SEN H 24 0:54:12 05:07 11.73
56 103 RIVEZ NICOLAS STRATOS RUNING SEN H 25 0:54:13 05:07 11.73
57 73 THOMAS PAUL BARRIERE V3 4 0:54:15 05:07 11.72
58 117 BENBETKA TATIANA JACO A1 1 0:54:23 05:08 11.69
59 58 COLINET PATRICIA   A3 1 0:55:04 05:12 11.55
60 24 LEGRAND SYLVIANE JACO A3 2 0:55:16 05:13 11.51
61 8 LEJEUNE PHILIPPE JACO V2 10 0:55:30 05:14 11.46
62 105 CORDEWENER MATHIEU AC FRONTIERES SEN H 26 0:55:41 05:15 11.42
63 45 BOMBLED CHRISTOPHE CERFONTAINE V1 15 0:55:51 05:16 11.39
64 110 DETRÉ PASCAL JCPMF CHIMAY V2 11 0:55:58 05:17 11.36
65 81 DELAPAS ASTRID   SEN F 1 0:56:03 05:17 11.35
66 3 WIAME CATHERINE PEAR TEAM A1 2 0:56:12 05:18 11.32
67 86 NICOLAS CATHERINE   A1 3 0:56:12 05:18 11.32
68 46 PONCELET JOSÉ AC FRONTIERES V4 1 0:56:19 05:19 11.29
69 96 CHARLOTTEAUX EDITH LA THURE SEN F 2 0:56:25 05:19 11.27
70 99 CORDEWENER LAURENT AC FRONTIERES V1 16 0:56:27 05:20 11.27
71 102 LEROY LUC JACO V2 12 0:56:58 05:22 11.16
72 47 SOKAY MICHEL LA THURE V3 5 0:57:10 05:24 11.13
73 93 GRATTEAU LAURETTE ABONDANCE SEN F 3 0:57:45 05:27 11.01
74 28 HENRARD ETIENNE AC FRONTIERES V2 13 0:58:26 05:31 10.88
75 43 COLLART MARCELLE   A2 1 0:58:59 05:34 10.78
76 44 LEGROS JACQUES LA THURE V3 6 0:59:00 05:34 10.78
77 122 BEDORET VINCENT CLERMONT VALGAU V2 14 0:59:45 05:38 10.64
78 12 LOBET LUDIVINE SHARKS GRANNY SEN F 4 1:00:04 05:40 10.59
79 74 PAGE BENJAMIN JACO SEN H 27 1:00:44 05:44 10.47
80 61 LINSTER ARNAUD STRATOS RUNNING SEN H 28 1:01:05 05:46 10.41
81 97 ELIS EMELINE   SEN F 5 1:02:23 05:53 10.20
82 80 URBANIAK JEAN   SEN H 29 1:02:39 05:55 10.15
83 5 ANCART LAËTITIA   SEN F 6 1:03:00 05:57 10.10
84 6 ANCART JEAN-LUC LA THURE V2 15 1:03:06 05:57 10.08
85 75 WIAME ANNE FAIREBEL A1 4 1:03:26 05:59 10.03
86 67 BOTTEAUX ISABELLE   A1 5 1:03:32 06:00 10.01
87 87 GANY PASCALE JACO A2 2 1:04:25 06:05 9.87
88 109 DETRIXHE JEHANNE   A2 3 1:04:27 06:05 9.87
89 90 GASQUET VALÉRIE LA THURE A3 3 1:04:36 06:06 9.85
90 82 COQUELET MICHEL LA THURE V2 16 1:04:51 06:07 9.81
91 16 LEMAIRE AIMÉ AC FRONTIERES V4 2 1:05:09 06:09 9.76
92 37 JACQUEMYNS LAURENCE LA THURE A1 6 1:06:01 06:14 9.63
93 9 HENRY PHILIPPE LA THURE V1 17 1:06:02 06:14 9.63
94 94 HANNECART ANTOINE   x   1:06:12 06:15 9.61
95 95 HANNEVART LAURENT   V2 17 1:07:59 06:25 9.36
96 116 LONFILS THIERRY JTRR V2 18 1:08:08 06:26 9.33
97 53 ROBERT PASCALE STRATOS RUNNING SEN F 7 1:09:01 06:31 9.22
98 55 JONQUIN ROSE-MARIE STRATOS RUNNING A1 7 1:11:22 06:44 8.91
99 101 DARDENNE AUDE JACO A1 8 1:15:23 07:07 8.44
100 36 TORFS CHRISTINE LA THURE A4 2 1:16:56 07:15 8.27
                 
Nos dernières videos